Bahia Uno — ECFT — position and weather

sailwx.info

Track history (hours):
 
Tides and Currents Weather Stations Pressure Air Temp Water Temp Dewpoint Dewpoint Depression Visibility Wind Speed Wind Dir Waves Ship Positions

Bahia Uno

Last reported at 2017-Sep-26 02:23 UTC. Time now 2017-Sep-26 04:03 UTC.
Position N 36°09' W 005°26'.

Length 70 m; draft 5.5 m.

Type: Ship. MMSI: 224127820.

Date/timePositionNaut miles runAvg speedWind from/ knotsBaromVisibWave heightAir tempDewpointWater temp
2017-Sep-26 02:23N 36°09' W 005°26'0 0.0
2017-Sep-26 02:00N 36°09' W 005°26'1 1.0
2017-Sep-26 01:29N 36°09' W 005°25'2 4.1
2017-Sep-26 01:00N 36°10' W 005°23'0 0.2
2017-Sep-26 00:30N 36°10' W 005°23'0 0.0
2017-Sep-26 00:00N 36°10' W 005°23'0 0.0
2017-Sep-25 23:30N 36°10' W 005°23'0 0.0
2017-Sep-25 23:00N 36°10' W 005°23'0 0.0
2017-Sep-25 22:30N 36°10' W 005°23'0 0.0
2017-Sep-25 21:58N 36°10' W 005°23'3 2.1
2017-Sep-25 20:42N 36°08' W 005°25'0 0.0
2017-Sep-25 18:46N 36°08' W 005°25'0 0.1
2017-Sep-25 18:30N 36°08' W 005°25'0 0.2
2017-Sep-25 18:00N 36°08' W 005°25'0 0.2
2017-Sep-25 17:24N 36°08' W 005°25'0 0.0
2017-Sep-25 16:51N 36°08' W 005°25'0 0.2
2017-Sep-25 16:29N 36°08' W 005°25'0 0.0
2017-Sep-25 16:00N 36°08' W 005°25'0 0.1
2017-Sep-25 15:29N 36°08' W 005°25'1 0.1
2017-Sep-25 01:43N 36°08' W 005°26'1 0.2
2017-Sep-24 17:42N 36°09' W 005°26'0 0.5
2017-Sep-24 17:20N 36°10' W 005°26'1 3.8
2017-Sep-24 17:00N 36°10' W 005°24'1 0.1
2017-Sep-24 03:06N 36°10' W 005°23'0 0.3
2017-Sep-24 02:00N 36°10' W 005°23'  
2017-Sep-21 03:39N 36°08' W 005°26'0 3.5
2017-Sep-21 03:30N 36°09' W 005°26'3 3.8
2017-Sep-21 02:47N 36°06' W 005°25'0 0.1
2017-Sep-21 02:17N 36°06' W 005°25'0 0.1
2017-Sep-21 02:00N 36°06' W 005°25'0 0.0
2017-Sep-21 01:30N 36°06' W 005°25'0 0.0
2017-Sep-21 00:43N 36°06' W 005°25'0 0.2
2017-Sep-21 00:30N 36°06' W 005°25'0 0.1
2017-Sep-20 23:59N 36°06' W 005°25'1 0.3
2017-Sep-20 21:56N 36°07' W 005°25'0 0.0
2017-Sep-20 05:15N 36°07' W 005°25'0 0.0
2017-Sep-19 20:01N 36°07' W 005°25'0 0.0
2017-Sep-19 20:00N 36°07' W 005°25'2 4.7
2017-Sep-19 19:29N 36°09' W 005°24'1 1.0
2017-Sep-19 18:53N 36°10' W 005°23'0 0.1
2017-Sep-19 18:30N 36°10' W 005°23'0 0.1
2017-Sep-19 18:00N 36°10' W 005°23'0 0.0
2017-Sep-19 17:30N 36°10' W 005°23'2 2.2
2017-Sep-19 16:23N 36°08' W 005°25'0 0.3
2017-Sep-19 15:02N 36°08' W 005°25'0 0.0
2017-Sep-19 15:00N 36°08' W 005°25'0 0.0
2017-Sep-19 14:30N 36°08' W 005°25'0 0.0
2017-Sep-19 14:00N 36°08' W 005°25'0 0.0
2017-Sep-19 13:30N 36°08' W 005°25'0 0.0
2017-Sep-19 13:00N 36°08' W 005°25'  
2017-Sep-16 23:56N 36°06' W 005°25'0 0.0
2017-Sep-16 22:40N 36°06' W 005°25'1 1.0
2017-Sep-16 21:23N 36°05' W 005°24'0 0.1
2017-Sep-16 20:59N 36°05' W 005°24'0 0.0
2017-Sep-16 19:31N 36°05' W 005°24'0 0.1
2017-Sep-16 19:27N 36°05' W 005°24'0 0.1
2017-Sep-16 18:56N 36°05' W 005°24'0 0.1
2017-Sep-16 17:40N 36°05' W 005°24'0 0.1
2017-Sep-16 17:30N 36°05' W 005°24'1 0.2
2017-Sep-16 12:58N 36°06' W 005°24'  
Track history (hours):
 
Tides and Currents Weather Stations Pressure Air Temp Water Temp Dewpoint Dewpoint Depression Visibility Wind Speed Wind Dir Waves Ship Positions

Bahia Uno

Last reported at 2017-Sep-26 02:23 UTC. Time now 2017-Sep-26 04:03 UTC.
Position N 36°09' W 005°26'.

Length 70 m; draft 5.5 m.

Type: Ship. MMSI: 224127820.

Date/timePositionNaut miles runAvg speedWind from/ knotsBaromVisibWave heightAir tempDewpointWater temp
2017-Sep-26 02:23N 36°09' W 005°26'0 0.0
2017-Sep-26 02:00N 36°09' W 005°26'1 1.0
2017-Sep-26 01:29N 36°09' W 005°25'2 4.1
2017-Sep-26 01:00N 36°10' W 005°23'0 0.2
2017-Sep-26 00:30N 36°10' W 005°23'0 0.0
2017-Sep-26 00:00N 36°10' W 005°23'0 0.0
2017-Sep-25 23:30N 36°10' W 005°23'0 0.0
2017-Sep-25 23:00N 36°10' W 005°23'0 0.0
2017-Sep-25 22:30N 36°10' W 005°23'0 0.0
2017-Sep-25 21:58N 36°10' W 005°23'3 2.1
2017-Sep-25 20:42N 36°08' W 005°25'0 0.0
2017-Sep-25 18:46N 36°08' W 005°25'0 0.1
2017-Sep-25 18:30N 36°08' W 005°25'0 0.2
2017-Sep-25 18:00N 36°08' W 005°25'0 0.2
2017-Sep-25 17:24N 36°08' W 005°25'0 0.0
2017-Sep-25 16:51N 36°08' W 005°25'0 0.2
2017-Sep-25 16:29N 36°08' W 005°25'0 0.0
2017-Sep-25 16:00N 36°08' W 005°25'0 0.1
2017-Sep-25 15:29N 36°08' W 005°25'1 0.1
2017-Sep-25 01:43N 36°08' W 005°26'1 0.2
2017-Sep-24 17:42N 36°09' W 005°26'0 0.5
2017-Sep-24 17:20N 36°10' W 005°26'1 3.8
2017-Sep-24 17:00N 36°10' W 005°24'1 0.1
2017-Sep-24 03:06N 36°10' W 005°23'0 0.3
2017-Sep-24 02:00N 36°10' W 005°23'  
2017-Sep-21 03:39N 36°08' W 005°26'0 3.5
2017-Sep-21 03:30N 36°09' W 005°26'3 3.8
2017-Sep-21 02:47N 36°06' W 005°25'0 0.1
2017-Sep-21 02:17N 36°06' W 005°25'0 0.1
2017-Sep-21 02:00N 36°06' W 005°25'0 0.0
2017-Sep-21 01:30N 36°06' W 005°25'0 0.0
2017-Sep-21 00:43N 36°06' W 005°25'0 0.2
2017-Sep-21 00:30N 36°06' W 005°25'0 0.1
2017-Sep-20 23:59N 36°06' W 005°25'1 0.3
2017-Sep-20 21:56N 36°07' W 005°25'0 0.0
2017-Sep-20 05:15N 36°07' W 005°25'0 0.0
2017-Sep-19 20:01N 36°07' W 005°25'0 0.0
2017-Sep-19 20:00N 36°07' W 005°25'2 4.7
2017-Sep-19 19:29N 36°09' W 005°24'1 1.0
2017-Sep-19 18:53N 36°10' W 005°23'0 0.1
2017-Sep-19 18:30N 36°10' W 005°23'0 0.1
2017-Sep-19 18:00N 36°10' W 005°23'0 0.0
2017-Sep-19 17:30N 36°10' W 005°23'2 2.2
2017-Sep-19 16:23N 36°08' W 005°25'0 0.3
2017-Sep-19 15:02N 36°08' W 005°25'0 0.0
2017-Sep-19 15:00N 36°08' W 005°25'0 0.0
2017-Sep-19 14:30N 36°08' W 005°25'0 0.0
2017-Sep-19 14:00N 36°08' W 005°25'0 0.0
2017-Sep-19 13:30N 36°08' W 005°25'0 0.0
2017-Sep-19 13:00N 36°08' W 005°25'  
2017-Sep-16 23:56N 36°06' W 005°25'0 0.0
2017-Sep-16 22:40N 36°06' W 005°25'1 1.0
2017-Sep-16 21:23N 36°05' W 005°24'0 0.1
2017-Sep-16 20:59N 36°05' W 005°24'0 0.0
2017-Sep-16 19:31N 36°05' W 005°24'0 0.1
2017-Sep-16 19:27N 36°05' W 005°24'0 0.1
2017-Sep-16 18:56N 36°05' W 005°24'0 0.1
2017-Sep-16 17:40N 36°05' W 005°24'0 0.1
2017-Sep-16 17:30N 36°05' W 005°24'1 0.2
2017-Sep-16 12:58N 36°06' W 005°24'  

Dump ship's entire track history